sensor_id;sensor_type;location;lat;lon;timestamp;temperature;humidity
21625;DHT22;10974;51.034;3.744;2022-09-27T03:17:59;10.20;99.90
21625;DHT22;10974;51.034;3.744;2022-09-27T03:20:24;10.40;99.90
21625;DHT22;10974;51.034;3.744;2022-09-27T03:22:50;10.50;99.90
21625;DHT22;10974;51.034;3.744;2022-09-27T03:25:16;10.10;99.90
21625;DHT22;10974;51.034;3.744;2022-09-27T03:27:43;10.00;99.90
21625;DHT22;10974;51.034;3.744;2022-09-27T03:30:09;10.10;99.90
21625;DHT22;10974;51.034;3.744;2022-09-27T03:32:35;10.10;99.90
21625;DHT22;10974;51.034;3.744;2022-09-27T03:35:01;10.00;99.90
21625;DHT22;10974;51.034;3.744;2022-09-27T03:37:26;10.00;99.90
21625;DHT22;10974;51.034;3.744;2022-09-27T03:39:54;10.10;99.90
21625;DHT22;10974;51.034;3.744;2022-09-27T03:42:20;10.00;99.90
21625;DHT22;10974;51.034;3.744;2022-09-27T03:44:45;9.90;99.90
21625;DHT22;10974;51.034;3.744;2022-09-27T03:47:11;9.90;99.90
21625;DHT22;10974;51.034;3.744;2022-09-27T03:49:37;10.00;99.90
21625;DHT22;10974;51.034;3.744;2022-09-27T03:52:02;10.00;99.90
21625;DHT22;10974;51.034;3.744;2022-09-27T03:54:28;10.20;99.90
21625;DHT22;10974;51.034;3.744;2022-09-27T03:56:54;10.00;99.90
21625;DHT22;10974;51.034;3.744;2022-09-27T03:59:19;10.00;99.90
21625;DHT22;10974;51.034;3.744;2022-09-27T04:01:45;10.30;99.90
21625;DHT22;10974;51.034;3.744;2022-09-27T04:04:10;10.10;99.90
21625;DHT22;10974;51.034;3.744;2022-09-27T04:06:36;9.80;99.90
21625;DHT22;10974;51.034;3.744;2022-09-27T04:09:02;9.70;99.90
21625;DHT22;10974;51.034;3.744;2022-09-27T04:11:28;9.90;99.90
21625;DHT22;10974;51.034;3.744;2022-09-27T04:13:53;9.70;99.90
21625;DHT22;10974;51.034;3.744;2022-09-27T04:16:21;9.70;99.90
21625;DHT22;10974;51.034;3.744;2022-09-27T04:18:46;9.80;99.90
21625;DHT22;10974;51.034;3.744;2022-09-27T04:21:12;10.00;99.90
21625;DHT22;10974;51.034;3.744;2022-09-27T04:23:38;9.80;99.90
21625;DHT22;10974;51.034;3.744;2022-09-27T04:26:03;9.80;99.90
21625;DHT22;10974;51.034;3.744;2022-09-27T04:28:29;9.70;99.90
21625;DHT22;10974;51.034;3.744;2022-09-27T04:30:56;9.70;99.90
21625;DHT22;10974;51.034;3.744;2022-09-27T04:33:22;9.70;99.90
21625;DHT22;10974;51.034;3.744;2022-09-27T04:35:48;9.50;99.90
21625;DHT22;10974;51.034;3.744;2022-09-27T04:38:33;9.60;99.90
21625;DHT22;10974;51.034;3.744;2022-09-27T04:40:58;9.80;99.90
21625;DHT22;10974;51.034;3.744;2022-09-27T04:43:27;9.80;99.90
21625;DHT22;10974;51.034;3.744;2022-09-27T04:45:52;9.60;99.90
21625;DHT22;10974;51.034;3.744;2022-09-27T04:48:18;9.50;99.90
21625;DHT22;10974;51.034;3.744;2022-09-27T04:50:44;9.60;99.90
21625;DHT22;10974;51.034;3.744;2022-09-27T04:53:13;9.60;99.90
21625;DHT22;10974;51.034;3.744;2022-09-27T04:55:39;9.40;99.90
21625;DHT22;10974;51.034;3.744;2022-09-27T04:58:08;9.60;99.90
21625;DHT22;10974;51.034;3.744;2022-09-27T05:00:34;9.60;99.90
21625;DHT22;10974;51.034;3.744;2022-09-27T05:03:00;9.50;99.90
21625;DHT22;10974;51.034;3.744;2022-09-27T05:05:26;9.50;99.90
21625;DHT22;10974;51.034;3.744;2022-09-27T05:07:52;9.70;99.90
21625;DHT22;10974;51.034;3.744;2022-09-27T05:10:18;9.80;99.90
21625;DHT22;10974;51.034;3.744;2022-09-27T05:12:43;9.80;99.90
21625;DHT22;10974;51.034;3.744;2022-09-27T05:15:09;9.70;99.90
21625;DHT22;10974;51.034;3.744;2022-09-27T05:17:35;9.80;99.90
21625;DHT22;10974;51.034;3.744;2022-09-27T05:20:02;9.60;99.90
21625;DHT22;10974;51.034;3.744;2022-09-27T05:22:28;9.80;99.90
21625;DHT22;10974;51.034;3.744;2022-09-27T05:24:54;9.70;99.90
21625;DHT22;10974;51.034;3.744;2022-09-27T05:27:19;9.70;99.90
21625;DHT22;10974;51.034;3.744;2022-09-27T05:29:46;9.60;99.90
21625;DHT22;10974;51.034;3.744;2022-09-27T05:32:12;9.80;99.90
21625;DHT22;10974;51.034;3.744;2022-09-27T05:34:38;9.70;99.90
21625;DHT22;10974;51.034;3.744;2022-09-27T05:37:04;9.40;99.90
21625;DHT22;10974;51.034;3.744;2022-09-27T05:39:29;9.50;99.90
21625;DHT22;10974;51.034;3.744;2022-09-27T05:41:55;9.70;99.90
21625;DHT22;10974;51.034;3.744;2022-09-27T05:44:22;9.50;99.90
21625;DHT22;10974;51.034;3.744;2022-09-27T05:46:48;9.70;99.90
21625;DHT22;10974;51.034;3.744;2022-09-27T05:49:13;9.80;99.90
21625;DHT22;10974;51.034;3.744;2022-09-27T05:51:39;9.70;99.90
21625;DHT22;10974;51.034;3.744;2022-09-27T05:54:05;9.60;99.90
21625;DHT22;10974;51.034;3.744;2022-09-27T05:56:31;9.70;99.90
21625;DHT22;10974;51.034;3.744;2022-09-27T05:58:56;9.70;99.90
21625;DHT22;10974;51.034;3.744;2022-09-27T06:01:23;10.90;99.90
21625;DHT22;10974;51.034;3.744;2022-09-27T06:03:51;11.90;99.90
21625;DHT22;10974;51.034;3.744;2022-09-27T06:06:18;12.60;99.90
21625;DHT22;10974;51.034;3.744;2022-09-27T06:08:43;12.90;99.90
21625;DHT22;10974;51.034;3.744;2022-09-27T06:11:11;13.30;99.90
21625;DHT22;10974;51.034;3.744;2022-09-27T06:13:37;13.60;99.90
21625;DHT22;10974;51.034;3.744;2022-09-27T06:16:04;14.00;99.90
21625;DHT22;10974;51.034;3.744;2022-09-27T06:18:30;14.20;99.90
21625;DHT22;10974;51.034;3.744;2022-09-27T06:20:58;14.40;99.90
21625;DHT22;10974;51.034;3.744;2022-09-27T06:23:25;14.60;99.90
21625;DHT22;10974;51.034;3.744;2022-09-27T06:25:52;14.90;99.90
21625;DHT22;10974;51.034;3.744;2022-09-27T06:28:19;15.40;99.90
21625;DHT22;10974;51.034;3.744;2022-09-27T06:30:47;15.60;99.90
21625;DHT22;10974;51.034;3.744;2022-09-27T06:33:18;15.50;99.90
21625;DHT22;10974;51.034;3.744;2022-09-27T06:35:44;15.50;99.90
21625;DHT22;10974;51.034;3.744;2022-09-27T06:38:16;15.40;99.90
21625;DHT22;10974;51.034;3.744;2022-09-27T06:40:45;15.60;99.90
21625;DHT22;10974;51.034;3.744;2022-09-27T06:43:13;15.80;99.90
21625;DHT22;10974;51.034;3.744;2022-09-27T06:45:40;15.80;99.90
21625;DHT22;10974;51.034;3.744;2022-09-27T06:48:09;15.90;99.90
21625;DHT22;10974;51.034;3.744;2022-09-27T06:50:38;16.00;99.90
21625;DHT22;10974;51.034;3.744;2022-09-27T06:53:06;16.10;99.90
21625;DHT22;10974;51.034;3.744;2022-09-27T06:55:32;16.30;99.90
21625;DHT22;10974;51.034;3.744;2022-09-27T06:57:59;16.40;99.90
21625;DHT22;10974;51.034;3.744;2022-09-27T07:00:44;16.10;99.90
21625;DHT22;10974;51.034;3.744;2022-09-27T07:03:12;16.00;99.90
21625;DHT22;10974;51.034;3.744;2022-09-27T07:05:39;16.00;99.90
21625;DHT22;10974;51.034;3.744;2022-09-27T07:08:11;16.00;99.90
21625;DHT22;10974;51.034;3.744;2022-09-27T07:10:38;16.00;99.90
21625;DHT22;10974;51.034;3.744;2022-09-27T07:13:08;15.90;99.90
21625;DHT22;10974;51.034;3.744;2022-09-27T07:15:35;15.90;99.90
21625;DHT22;10974;51.034;3.744;2022-09-27T07:18:03;15.90;99.90
21625;DHT22;10974;51.034;3.744;2022-09-27T07:20:29;15.90;99.90
21625;DHT22;10974;51.034;3.744;2022-09-27T07:22:55;16.20;99.90
21625;DHT22;10974;51.034;3.744;2022-09-27T07:25:22;16.60;99.90
21625;DHT22;10974;51.034;3.744;2022-09-27T07:27:48;16.70;99.90
21625;DHT22;10974;51.034;3.744;2022-09-27T07:30:14;16.80;99.90
21625;DHT22;10974;51.034;3.744;2022-09-27T07:32:41;16.90;99.90
21625;DHT22;10974;51.034;3.744;2022-09-27T07:35:08;16.80;99.90
21625;DHT22;10974;51.034;3.744;2022-09-27T07:37:36;16.50;99.90
21625;DHT22;10974;51.034;3.744;2022-09-27T07:40:05;16.40;99.90
21625;DHT22;10974;51.034;3.744;2022-09-27T07:42:36;16.20;99.90
21625;DHT22;10974;51.034;3.744;2022-09-27T07:45:07;16.40;99.90
21625;DHT22;10974;51.034;3.744;2022-09-27T07:47:33;15.90;99.90
21625;DHT22;10974;51.034;3.744;2022-09-27T07:49:59;15.70;99.90
21625;DHT22;10974;51.034;3.744;2022-09-27T07:52:25;15.60;99.90
21625;DHT22;10974;51.034;3.744;2022-09-27T07:54:50;15.70;99.90
21625;DHT22;10974;51.034;3.744;2022-09-27T07:57:16;16.10;99.90
21625;DHT22;10974;51.034;3.744;2022-09-27T07:59:46;16.20;99.90
21625;DHT22;10974;51.034;3.744;2022-09-27T08:02:16;16.20;99.90
21625;DHT22;10974;51.034;3.744;2022-09-27T08:04:42;16.00;99.90
21625;DHT22;10974;51.034;3.744;2022-09-27T08:07:13;16.10;99.90
21625;DHT22;10974;51.034;3.744;2022-09-27T08:09:39;16.40;99.90
21625;DHT22;10974;51.034;3.744;2022-09-27T08:12:05;16.40;99.90
21625;DHT22;10974;51.034;3.744;2022-09-27T08:14:31;16.40;99.90
21625;DHT22;10974;51.034;3.744;2022-09-27T08:16:56;16.50;99.90
21625;DHT22;10974;51.034;3.744;2022-09-27T08:19:22;16.60;99.90
21625;DHT22;10974;51.034;3.744;2022-09-27T08:21:50;16.60;99.90
21625;DHT22;10974;51.034;3.744;2022-09-27T08:24:16;16.40;5.90
21625;DHT22;10974;51.034;3.744;2022-09-27T08:26:42;16.50;99.90
21625;DHT22;10974;51.034;3.744;2022-09-27T08:29:07;16.60;99.90
21625;DHT22;10974;51.034;3.744;2022-09-27T08:31:34;16.90;99.90
21625;DHT22;10974;51.034;3.744;2022-09-27T08:33:59;17.00;99.90
21625;DHT22;10974;51.034;3.744;2022-09-27T08:36:26;16.80;1.00
21625;DHT22;10974;51.034;3.744;2022-09-27T08:38:52;16.80;91.20
21625;DHT22;10974;51.034;3.744;2022-09-27T08:41:38;16.60;99.90
21625;DHT22;10974;51.034;3.744;2022-09-27T08:46:51;15.70;1.00
21625;DHT22;10974;51.034;3.744;2022-09-27T08:52:05;16.70;99.90
21625;DHT22;10974;51.034;3.744;2022-09-27T08:54:32;16.90;99.90
21625;DHT22;10974;51.034;3.744;2022-09-27T08:57:19;17.00;1.00
21625;DHT22;10974;51.034;3.744;2022-09-27T09:00:10;17.00;1.00
21625;DHT22;10974;51.034;3.744;2022-09-27T09:02:36;16.70;1.00
21625;DHT22;10974;51.034;3.744;2022-09-27T09:05:10;16.80;99.90
21625;DHT22;10974;51.034;3.744;2022-09-27T09:13:24;17.20;1.00
21625;DHT22;10974;51.034;3.744;2022-09-27T09:16:10;17.50;1.00
21625;DHT22;10974;51.034;3.744;2022-09-27T09:34:52;18.40;99.90
21625;DHT22;10974;51.034;3.744;2022-09-27T09:37:21;18.30;1.00
21625;DHT22;10974;51.034;3.744;2022-09-27T09:42:47;18.70;1.00
21625;DHT22;10974;51.034;3.744;2022-09-27T09:45:17;18.80;1.00
21625;DHT22;10974;51.034;3.744;2022-09-27T09:50:39;18.70;99.90
21625;DHT22;10974;51.034;3.744;2022-09-27T09:56:02;18.90;2.00
21625;DHT22;10974;51.034;3.744;2022-09-27T09:58:49;18.60;1.00
21625;DHT22;10974;51.034;3.744;2022-09-27T10:01:22;14.90;1.00
21625;DHT22;10974;51.034;3.744;2022-09-27T10:03:49;13.80;99.90
21625;DHT22;10974;51.034;3.744;2022-09-27T10:06:15;13.50;99.90
21625;DHT22;10974;51.034;3.744;2022-09-27T10:08:43;13.50;99.90
21625;DHT22;10974;51.034;3.744;2022-09-27T10:11:39;13.50;99.90
21625;DHT22;10974;51.034;3.744;2022-09-27T10:14:10;13.40;99.90
21625;DHT22;10974;51.034;3.744;2022-09-27T10:16:38;12.80;99.90
21625;DHT22;10974;51.034;3.744;2022-09-27T10:19:08;12.30;99.90
21625;DHT22;10974;51.034;3.744;2022-09-27T10:21:39;12.00;99.90
21625;DHT22;10974;51.034;3.744;2022-09-27T10:24:14;11.80;99.90
21625;DHT22;10974;51.034;3.744;2022-09-27T10:26:42;11.30;99.90
21625;DHT22;10974;51.034;3.744;2022-09-27T10:29:29;11.00;99.90
21625;DHT22;10974;51.034;3.744;2022-09-27T10:31:55;11.20;99.90
21625;DHT22;10974;51.034;3.744;2022-09-27T10:37:16;11.90;99.90
21625;DHT22;10974;51.034;3.744;2022-09-27T10:39:47;12.10;99.90
21625;DHT22;10974;51.034;3.744;2022-09-27T10:44:57;12.90;99.90
21625;DHT22;10974;51.034;3.744;2022-09-27T10:47:23;13.30;99.90
21625;DHT22;10974;51.034;3.744;2022-09-27T10:49:51;13.60;99.90
21625;DHT22;10974;51.034;3.744;2022-09-27T10:52:26;14.10;99.90
21625;DHT22;10974;51.034;3.744;2022-09-27T10:57:21;14.70;99.90
21625;DHT22;10974;51.034;3.744;2022-09-27T11:00:19;14.80;99.90
21625;DHT22;10974;51.034;3.744;2022-09-27T11:02:53;14.90;99.90
21625;DHT22;10974;51.034;3.744;2022-09-27T11:07:52;15.60;99.90
21625;DHT22;10974;51.034;3.744;2022-09-27T11:10:30;15.60;99.90
21625;DHT22;10974;51.034;3.744;2022-09-27T11:16:17;16.20;99.90
21625;DHT22;10974;51.034;3.744;2022-09-27T11:18:54;16.40;99.90
21625;DHT22;10974;51.034;3.744;2022-09-27T11:21:48;16.30;99.90
21625;DHT22;10974;51.034;3.744;2022-09-27T11:32:43;16.90;99.90
21625;DHT22;10974;51.034;3.744;2022-09-27T11:38:25;17.10;3.90
21625;DHT22;10974;51.034;3.744;2022-09-27T11:46:31;17.70;1.00
21625;DHT22;10974;51.034;3.744;2022-09-27T11:49:04;17.90;99.90
21625;DHT22;10974;51.034;3.744;2022-09-27T12:05:24;15.60;1.00
21625;DHT22;10974;51.034;3.744;2022-09-27T12:10:49;14.70;90.70
21625;DHT22;10974;51.034;3.744;2022-09-27T12:13:32;14.50;1.00
21625;DHT22;10974;51.034;3.744;2022-09-27T12:15:59;15.10;99.90
21625;DHT22;10974;51.034;3.744;2022-09-27T12:18:28;15.30;99.90
21625;DHT22;10974;51.034;3.744;2022-09-27T12:20:59;14.60;1.00
21625;DHT22;10974;51.034;3.744;2022-09-27T12:23:54;14.50;1.00
21625;DHT22;10974;51.034;3.744;2022-09-27T12:26:27;14.00;99.90
21625;DHT22;10974;51.034;3.744;2022-09-27T12:37:37;13.90;99.90
21625;DHT22;10974;51.034;3.744;2022-09-27T12:51:35;13.10;99.90
21625;DHT22;10974;51.034;3.744;2022-09-27T13:13:29;13.60;99.90
21625;DHT22;10974;51.034;3.744;2022-09-27T13:15:57;13.60;99.90
21625;DHT22;10974;51.034;3.744;2022-09-27T13:20:55;13.80;99.90
21625;DHT22;10974;51.034;3.744;2022-09-27T13:26:43;14.20;99.90
21625;DHT22;10974;51.034;3.744;2022-09-27T13:31:15;14.20;99.90
21625;DHT22;10974;51.034;3.744;2022-09-27T13:33:49;14.20;99.90
21625;DHT22;10974;51.034;3.744;2022-09-27T13:47:15;13.50;99.90
21625;DHT22;10974;51.034;3.744;2022-09-27T13:49:56;13.50;99.90
21625;DHT22;10974;51.034;3.744;2022-09-27T13:52:30;13.50;99.90
21625;DHT22;10974;51.034;3.744;2022-09-27T13:55:35;13.40;99.90
21625;DHT22;10974;51.034;3.744;2022-09-27T13:57:55;13.30;99.90
21625;DHT22;10974;51.034;3.744;2022-09-27T14:00:24;13.40;99.90
21625;DHT22;10974;51.034;3.744;2022-09-27T14:05:51;13.00;99.90
21625;DHT22;10974;51.034;3.744;2022-09-27T14:08:33;13.10;99.90
21625;DHT22;10974;51.034;3.744;2022-09-27T14:11:01;12.90;99.90
21625;DHT22;10974;51.034;3.744;2022-09-27T14:13:28;12.70;99.90
21625;DHT22;10974;51.034;3.744;2022-09-27T14:15:58;12.30;99.90
21625;DHT22;10974;51.034;3.744;2022-09-27T14:18:24;12.20;99.90
21625;DHT22;10974;51.034;3.744;2022-09-27T14:20:51;12.00;99.90
21625;DHT22;10974;51.034;3.744;2022-09-27T14:23:25;12.20;99.90
21625;DHT22;10974;51.034;3.744;2022-09-27T14:25:52;11.80;99.90
21625;DHT22;10974;51.034;3.744;2022-09-27T14:28:25;11.80;99.90
21625;DHT22;10974;51.034;3.744;2022-09-27T14:31:13;11.70;99.90
21625;DHT22;10974;51.034;3.744;2022-09-27T14:33:40;11.70;99.90
21625;DHT22;10974;51.034;3.744;2022-09-27T14:36:17;11.80;99.90
21625;DHT22;10974;51.034;3.744;2022-09-27T14:39:32;12.20;99.90
21625;DHT22;10974;51.034;3.744;2022-09-27T14:42:02;12.20;99.90
21625;DHT22;10974;51.034;3.744;2022-09-27T14:44:29;12.20;99.90
21625;DHT22;10974;51.034;3.744;2022-09-27T14:47:16;12.50;99.90
21625;DHT22;10974;51.034;3.744;2022-09-27T14:49:51;12.60;99.90
21625;DHT22;10974;51.034;3.744;2022-09-27T14:52:37;12.30;99.90
21625;DHT22;10974;51.034;3.744;2022-09-27T14:55:19;12.60;99.90
21625;DHT22;10974;51.034;3.744;2022-09-27T14:57:56;12.40;99.90
21625;DHT22;10974;51.034;3.744;2022-09-27T15:00:25;12.20;99.90
21625;DHT22;10974;51.034;3.744;2022-09-27T15:02:53;12.40;99.90
21625;DHT22;10974;51.034;3.744;2022-09-27T15:05:22;12.40;99.90
21625;DHT22;10974;51.034;3.744;2022-09-27T15:07:49;12.30;99.90
21625;DHT22;10974;51.034;3.744;2022-09-27T15:10:18;12.50;99.90
21625;DHT22;10974;51.034;3.744;2022-09-27T15:12:47;12.60;99.90
21625;DHT22;10974;51.034;3.744;2022-09-27T15:15:24;12.70;99.90
21625;DHT22;10974;51.034;3.744;2022-09-27T15:17:52;12.60;99.90
21625;DHT22;10974;51.034;3.744;2022-09-27T15:20:33;12.40;99.90
21625;DHT22;10974;51.034;3.744;2022-09-27T15:23:00;12.40;99.90
21625;DHT22;10974;51.034;3.744;2022-09-27T15:25:42;12.60;99.90
21625;DHT22;10974;51.034;3.744;2022-09-27T15:28:21;12.70;99.90
21625;DHT22;10974;51.034;3.744;2022-09-27T15:30:57;12.90;99.90
21625;DHT22;10974;51.034;3.744;2022-09-27T15:33:25;13.00;99.90
21625;DHT22;10974;51.034;3.744;2022-09-27T15:35:56;12.80;99.90
21625;DHT22;10974;51.034;3.744;2022-09-27T15:38:37;13.00;99.90
21625;DHT22;10974;51.034;3.744;2022-09-27T15:46:04;13.00;99.90
21625;DHT22;10974;51.034;3.744;2022-09-27T15:48:32;12.80;99.90
21625;DHT22;10974;51.034;3.744;2022-09-27T15:51:00;12.90;99.90
21625;DHT22;10974;51.034;3.744;2022-09-27T15:56:02;13.00;99.90
21625;DHT22;10974;51.034;3.744;2022-09-27T15:58:32;12.90;99.90
21625;DHT22;10974;51.034;3.744;2022-09-27T16:01:00;13.70;99.90
21625;DHT22;10974;51.034;3.744;2022-09-27T16:03:30;14.80;99.90
21625;DHT22;10974;51.034;3.744;2022-09-27T16:05:57;15.60;99.90
21625;DHT22;10974;51.034;3.744;2022-09-27T16:08:25;16.30;99.90
21625;DHT22;10974;51.034;3.744;2022-09-27T16:10:55;16.70;99.90
21625;DHT22;10974;51.034;3.744;2022-09-27T16:13:24;17.00;99.90
21625;DHT22;10974;51.034;3.744;2022-09-27T16:15:50;17.40;99.90
21625;DHT22;10974;51.034;3.744;2022-09-27T16:18:16;17.70;99.90
21625;DHT22;10974;51.034;3.744;2022-09-27T16:20:42;17.90;99.90
21625;DHT22;10974;51.034;3.744;2022-09-27T16:23:08;18.00;99.90
21625;DHT22;10974;51.034;3.744;2022-09-27T16:25:34;18.00;99.90
21625;DHT22;10974;51.034;3.744;2022-09-27T16:28:01;18.10;99.90
21625;DHT22;10974;51.034;3.744;2022-09-27T16:30:28;18.20;99.90
21625;DHT22;10974;51.034;3.744;2022-09-27T16:32:54;18.30;99.90
21625;DHT22;10974;51.034;3.744;2022-09-27T16:35:21;18.40;99.90
21625;DHT22;10974;51.034;3.744;2022-09-27T16:37:47;18.30;99.90
21625;DHT22;10974;51.034;3.744;2022-09-27T16:40:14;18.40;99.90
21625;DHT22;10974;51.034;3.744;2022-09-27T16:42:42;18.50;99.90
21625;DHT22;10974;51.034;3.744;2022-09-27T16:45:08;18.40;99.90
21625;DHT22;10974;51.034;3.744;2022-09-27T16:47:34;18.40;99.90
21625;DHT22;10974;51.034;3.744;2022-09-27T16:50:01;18.40;99.90
21625;DHT22;10974;51.034;3.744;2022-09-27T16:52:45;18.40;99.90
21625;DHT22;10974;51.034;3.744;2022-09-27T16:55:14;18.60;99.90
21625;DHT22;10974;51.034;3.744;2022-09-27T16:57:42;18.50;99.90
21625;DHT22;10974;51.034;3.744;2022-09-27T17:00:08;18.60;99.90
21625;DHT22;10974;51.034;3.744;2022-09-27T17:02:34;18.70;99.90
21625;DHT22;10974;51.034;3.744;2022-09-27T17:05:00;18.90;99.90
21625;DHT22;10974;51.034;3.744;2022-09-27T17:07:26;18.90;99.90
21625;DHT22;10974;51.034;3.744;2022-09-27T17:09:52;19.00;99.90
21625;DHT22;10974;51.034;3.744;2022-09-27T17:12:18;19.00;99.90
21625;DHT22;10974;51.034;3.744;2022-09-27T17:14:44;19.00;99.90
21625;DHT22;10974;51.034;3.744;2022-09-27T17:17:09;18.90;99.90
21625;DHT22;10974;51.034;3.744;2022-09-27T17:19:35;19.00;99.90
21625;DHT22;10974;51.034;3.744;2022-09-27T17:22:05;19.10;99.90
21625;DHT22;10974;51.034;3.744;2022-09-27T17:24:32;19.10;99.90
21625;DHT22;10974;51.034;3.744;2022-09-27T17:26:57;19.10;99.90
21625;DHT22;10974;51.034;3.744;2022-09-27T17:29:23;18.80;99.90
21625;DHT22;10974;51.034;3.744;2022-09-27T17:31:49;18.70;99.90
21625;DHT22;10974;51.034;3.744;2022-09-27T17:34:15;18.50;99.90
21625;DHT22;10974;51.034;3.744;2022-09-27T17:36:43;18.20;99.90
21625;DHT22;10974;51.034;3.744;2022-09-27T17:39:17;17.70;72.00
21625;DHT22;10974;51.034;3.744;2022-09-27T17:41:47;17.70;99.90
21625;DHT22;10974;51.034;3.744;2022-09-27T17:44:14;17.60;1.00
21625;DHT22;10974;51.034;3.744;2022-09-27T17:46:41;17.60;1.00
21625;DHT22;10974;51.034;3.744;2022-09-27T17:49:09;17.60;1.00
21625;DHT22;10974;51.034;3.744;2022-09-27T17:51:53;17.70;18.00
21625;DHT22;10974;51.034;3.744;2022-09-27T17:54:22;17.70;99.90
21625;DHT22;10974;51.034;3.744;2022-09-27T17:56:48;17.70;99.90
21625;DHT22;10974;51.034;3.744;2022-09-27T17:59:15;17.80;99.90
21625;DHT22;10974;51.034;3.744;2022-09-27T18:01:43;17.80;99.90
21625;DHT22;10974;51.034;3.744;2022-09-27T18:04:13;17.90;99.90
21625;DHT22;10974;51.034;3.744;2022-09-27T18:06:41;17.90;99.90
21625;DHT22;10974;51.034;3.744;2022-09-27T18:09:09;17.90;99.90
21625;DHT22;10974;51.034;3.744;2022-09-27T18:11:36;17.80;99.90
21625;DHT22;10974;51.034;3.744;2022-09-27T18:14:02;17.50;99.90
21625;DHT22;10974;51.034;3.744;2022-09-27T18:16:30;17.60;99.90
21625;DHT22;10974;51.034;3.744;2022-09-27T18:19:01;17.50;99.90
21625;DHT22;10974;51.034;3.744;2022-09-27T18:21:27;17.30;99.90
21625;DHT22;10974;51.034;3.744;2022-09-27T18:23:56;17.20;99.90
21625;DHT22;10974;51.034;3.744;2022-09-27T18:26:22;17.40;99.90
21625;DHT22;10974;51.034;3.744;2022-09-27T18:28:50;17.40;99.90
21625;DHT22;10974;51.034;3.744;2022-09-27T18:31:17;17.50;99.90
21625;DHT22;10974;51.034;3.744;2022-09-27T18:33:43;17.50;99.90
21625;DHT22;10974;51.034;3.744;2022-09-27T18:36:19;17.60;99.90
21625;DHT22;10974;51.034;3.744;2022-09-27T18:38:51;17.70;99.90
21625;DHT22;10974;51.034;3.744;2022-09-27T18:41:17;17.50;99.90
21625;DHT22;10974;51.034;3.744;2022-09-27T18:43:45;17.40;99.90
21625;DHT22;10974;51.034;3.744;2022-09-27T18:46:16;17.40;99.90
21625;DHT22;10974;51.034;3.744;2022-09-27T18:48:43;17.40;99.90
21625;DHT22;10974;51.034;3.744;2022-09-27T18:51:15;17.30;99.90
21625;DHT22;10974;51.034;3.744;2022-09-27T18:53:42;17.00;99.90
21625;DHT22;10974;51.034;3.744;2022-09-27T18:56:13;17.10;99.90
21625;DHT22;10974;51.034;3.744;2022-09-27T18:58:40;17.60;99.90
21625;DHT22;10974;51.034;3.744;2022-09-27T19:01:13;17.70;99.90
21625;DHT22;10974;51.034;3.744;2022-09-27T19:03:39;18.00;99.90
21625;DHT22;10974;51.034;3.744;2022-09-27T19:06:20;17.90;99.90
21625;DHT22;10974;51.034;3.744;2022-09-27T19:08:46;17.80;99.90
21625;DHT22;10974;51.034;3.744;2022-09-27T19:11:17;17.70;99.90
21625;DHT22;10974;51.034;3.744;2022-09-27T19:13:44;17.60;40.20
21625;DHT22;10974;51.034;3.744;2022-09-27T19:16:10;17.20;1.00
21625;DHT22;10974;51.034;3.744;2022-09-27T19:18:37;16.90;1.00
21625;DHT22;10974;51.034;3.744;2022-09-27T19:21:06;16.90;99.90
21625;DHT22;10974;51.034;3.744;2022-09-27T19:23:33;17.10;99.90
21625;DHT22;10974;51.034;3.744;2022-09-27T19:25:59;17.30;99.90
21625;DHT22;10974;51.034;3.744;2022-09-27T19:28:26;17.50;99.90
21625;DHT22;10974;51.034;3.744;2022-09-27T19:30:52;17.40;99.90
21625;DHT22;10974;51.034;3.744;2022-09-27T19:33:18;17.40;99.90
21625;DHT22;10974;51.034;3.744;2022-09-27T19:35:44;17.40;99.90
21625;DHT22;10974;51.034;3.744;2022-09-27T19:38:11;17.30;99.90
21625;DHT22;10974;51.034;3.744;2022-09-27T19:40:36;17.10;99.90
21625;DHT22;10974;51.034;3.744;2022-09-27T19:43:02;16.90;99.90
21625;DHT22;10974;51.034;3.744;2022-09-27T19:45:28;16.80;99.90
21625;DHT22;10974;51.034;3.744;2022-09-27T19:47:53;16.90;99.90
21625;DHT22;10974;51.034;3.744;2022-09-27T19:50:21;16.60;99.90
21625;DHT22;10974;51.034;3.744;2022-09-27T19:52:47;16.30;99.90
21625;DHT22;10974;51.034;3.744;2022-09-27T19:55:14;16.40;99.90
21625;DHT22;10974;51.034;3.744;2022-09-27T19:57:41;16.70;99.90
21625;DHT22;10974;51.034;3.744;2022-09-27T20:00:07;16.90;99.90
21625;DHT22;10974;51.034;3.744;2022-09-27T20:02:33;17.10;99.90
21625;DHT22;10974;51.034;3.744;2022-09-27T20:04:58;17.20;99.90
21625;DHT22;10974;51.034;3.744;2022-09-27T20:07:24;17.20;99.90
21625;DHT22;10974;51.034;3.744;2022-09-27T20:09:50;17.20;99.90
21625;DHT22;10974;51.034;3.744;2022-09-27T20:12:16;17.40;99.90
21625;DHT22;10974;51.034;3.744;2022-09-27T20:14:42;17.40;99.90
21625;DHT22;10974;51.034;3.744;2022-09-27T20:17:08;17.50;99.90
21625;DHT22;10974;51.034;3.744;2022-09-27T20:19:34;17.50;99.90
21625;DHT22;10974;51.034;3.744;2022-09-27T20:21:59;17.50;99.90
21625;DHT22;10974;51.034;3.744;2022-09-27T20:24:26;17.50;99.90
21625;DHT22;10974;51.034;3.744;2022-09-27T20:26:52;17.60;99.90
21625;DHT22;10974;51.034;3.744;2022-09-27T20:29:17;17.50;99.90
21625;DHT22;10974;51.034;3.744;2022-09-27T20:31:43;17.30;99.90
21625;DHT22;10974;51.034;3.744;2022-09-27T20:34:13;17.40;99.90
21625;DHT22;10974;51.034;3.744;2022-09-27T20:36:40;17.40;99.90
21625;DHT22;10974;51.034;3.744;2022-09-27T20:39:11;17.40;99.90
21625;DHT22;10974;51.034;3.744;2022-09-27T20:41:39;17.40;99.90
21625;DHT22;10974;51.034;3.744;2022-09-27T20:44:11;17.30;99.90
21625;DHT22;10974;51.034;3.744;2022-09-27T20:46:38;17.30;99.90
21625;DHT22;10974;51.034;3.744;2022-09-27T20:49:07;17.20;99.90
21625;DHT22;10974;51.034;3.744;2022-09-27T20:51:35;17.30;99.90
21625;DHT22;10974;51.034;3.744;2022-09-27T20:54:02;17.40;99.90
21625;DHT22;10974;51.034;3.744;2022-09-27T20:56:30;17.50;99.90
21625;DHT22;10974;51.034;3.744;2022-09-27T20:58:58;17.30;99.90
21625;DHT22;10974;51.034;3.744;2022-09-27T21:01:25;17.40;99.90
21625;DHT22;10974;51.034;3.744;2022-09-27T21:03:56;17.40;99.90
21625;DHT22;10974;51.034;3.744;2022-09-27T21:06:22;17.60;99.90
21625;DHT22;10974;51.034;3.744;2022-09-27T21:08:49;17.50;99.90
21625;DHT22;10974;51.034;3.744;2022-09-27T21:11:16;17.60;99.90
21625;DHT22;10974;51.034;3.744;2022-09-27T21:13:43;17.80;99.90
21625;DHT22;10974;51.034;3.744;2022-09-27T21:16:14;17.50;26.30
21625;DHT22;10974;51.034;3.744;2022-09-27T21:18:41;17.40;1.00
21625;DHT22;10974;51.034;3.744;2022-09-27T21:21:11;17.50;1.00
21625;DHT22;10974;51.034;3.744;2022-09-27T21:23:39;17.70;1.00
